Time;durP1;ratioP1;P1;durP2;ratioP2;P2;SDS_P1;SDS_P2;PMS_P1;PMS_P2;Temp;Humidity;BMP_temperature;BMP_pressure;BME280_temperature;BME280_humidity;BME280_pressure;Samples;Min_cycle;Max_cycle;Signal;HPM_P1;HPM_P2
2022/08/22 00:01:01;;;;;;;5.70;2.47;;;19.20;84.20;;;;;;5055895;28;20125;-83
2022/08/22 00:03:41;;;;;;;3.90;2.20;;;19.20;84.50;;;;;;5058143;28;20047;-84
2022/08/22 00:06:36;;;;;;;6.90;2.80;;;19.30;84.20;;;;;;5063516;28;20063;-83
2022/08/22 00:09:10;;;;;;;4.80;2.33;;;19.40;83.90;;;;;;5098697;28;20475;-83
2022/08/22 00:12:02;;;;;;;5.70;2.55;;;19.50;83.60;;;;;;5075891;28;20029;-82
2022/08/22 00:14:36;;;;;;;4.97;2.85;;;19.50;83.40;;;;;;5039527;28;20041;-83
2022/08/22 00:17:12;;;;;;;4.97;2.70;;;19.50;83.20;;;;;;5040117;28;20044;-82
2022/08/22 00:19:53;;;;;;;4.53;2.78;;;19.50;83.20;;;;;;5039728;28;20060;-82
2022/08/22 00:22:25;;;;;;;5.00;2.38;;;19.60;83.10;;;;;;5058106;28;20033;-82
2022/08/22 00:25:02;;;;;;;5.03;2.67;;;19.60;83.00;;;;;;5057890;28;20439;-83
2022/08/22 00:27:54;;;;;;;4.95;2.85;;;19.60;83.00;;;;;;5057744;28;20037;-83
2022/08/22 00:30:20;;;;;;;6.35;2.58;;;19.60;83.10;;;;;;5057930;28;20045;-83
2022/08/22 00:32:55;;;;;;;5.32;2.70;;;19.60;83.00;;;;;;5057655;28;20028;-82
2022/08/22 00:35:43;;;;;;;5.60;3.10;;;19.50;83.20;;;;;;5057095;28;20481;-83
2022/08/22 00:38:29;;;;;;;6.53;3.42;;;19.50;83.30;;;;;;5057547;28;20026;-83
2022/08/22 00:41:23;;;;;;;4.82;2.78;;;19.50;83.40;;;;;;5039733;28;20111;-83
2022/08/22 00:44:12;;;;;;;4.47;3.05;;;19.40;83.50;;;;;;5057645;28;20567;-82
2022/08/22 00:47:01;;;;;;;7.35;3.20;;;19.40;83.60;;;;;;5057358;28;20033;-83
2022/08/22 00:49:48;;;;;;;5.22;3.08;;;19.40;83.60;;;;;;5057391;28;20141;-82
2022/08/22 00:52:35;;;;;;;5.22;3.80;;;19.50;83.60;;;;;;5056902;28;20070;-83
2022/08/22 00:55:18;;;;;;;6.60;3.30;;;19.50;83.50;;;;;;5057463;28;20048;-82
2022/08/22 00:58:13;;;;;;;6.00;3.08;;;19.50;83.50;;;;;;5057250;28;20079;-83
2022/08/22 01:00:55;;;;;;;9.93;3.13;;;19.40;83.60;;;;;;5003399;28;20078;-83
2022/08/22 01:03:33;;;;;;;5.35;2.97;;;19.40;83.70;;;;;;5059205;28;20056;-83
2022/08/22 01:06:10;;;;;;;5.85;3.58;;;19.40;83.50;;;;;;5087482;28;20036;-82
2022/08/22 01:09:13;;;;;;;6.15;3.50;;;19.50;83.60;;;;;;5097412;28;20020;-83
2022/08/22 01:12:17;;;;;;;5.43;2.60;;;19.40;83.40;;;;;;5064290;28;20400;-82
2022/08/22 01:14:54;;;;;;;4.55;2.83;;;19.40;83.60;;;;;;5012614;28;20178;-82
2022/08/22 01:17:50;;;;;;;5.75;3.45;;;19.50;83.70;;;;;;5056932;28;20024;-82
2022/08/22 01:20:34;;;;;;;7.60;3.40;;;19.40;83.70;;;;;;5056935;28;20484;-82
2022/08/22 01:23:27;;;;;;;8.63;3.60;;;19.50;83.70;;;;;;5056918;28;20089;-82
2022/08/22 01:26:23;;;;;;;5.85;3.35;;;19.50;83.50;;;;;;5071138;28;20107;-82
2022/08/22 01:29:26;;;;;;;6.90;3.40;;;19.50;83.30;;;;;;5056198;28;20091;-82
2022/08/22 01:32:35;;;;;;;5.28;3.47;;;19.60;83.20;;;;;;5055650;28;20033;-82
2022/08/22 01:35:31;;;;;;;5.95;3.33;;;19.60;83.30;;;;;;5072655;28;20056;-82
2022/08/22 01:38:18;;;;;;;5.75;3.70;;;19.60;83.20;;;;;;5076482;28;20484;-83
2022/08/22 01:41:21;;;;;;;7.97;3.88;;;19.50;83.50;;;;;;5076637;28;20028;-83
2022/08/22 01:44:15;;;;;;;5.85;3.20;;;19.60;83.30;;;;;;5056749;28;20365;-82
2022/08/22 01:46:49;;;;;;;5.32;3.25;;;19.60;83.20;;;;;;5055869;28;20040;-82
2022/08/22 01:49:56;;;;;;;6.63;3.33;;;19.60;83.00;;;;;;5056315;28;20060;-82
2022/08/22 01:52:30;;;;;;;7.07;3.78;;;19.60;83.10;;;;;;5053005;28;20367;-83
2022/08/22 01:55:12;;;;;;;5.72;3.35;;;19.60;83.30;;;;;;5076048;28;20510;-83
2022/08/22 01:57:53;;;;;;;6.60;3.72;;;19.50;83.40;;;;;;5067030;28;20036;-82
2022/08/22 02:00:21;;;;;;;6.95;3.70;;;19.60;83.40;;;;;;5056096;28;20127;-82
2022/08/22 02:03:06;;;;;;;8.13;3.70;;;19.60;83.30;;;;;;5055674;28;20044;-83
2022/08/22 02:05:53;;;;;;;6.60;3.35;;;19.60;83.20;;;;;;5073155;28;20030;-83
2022/08/22 02:08:37;;;;;;;5.75;3.15;;;19.60;83.20;;;;;;5089851;28;20036;-82
2022/08/22 02:11:09;;;;;;;9.48;3.83;;;19.60;83.40;;;;;;5075932;28;20035;-82
2022/08/22 02:13:45;;;;;;;6.15;3.80;;;19.60;83.40;;;;;;5075732;28;20037;-83
2022/08/22 02:16:29;;;;;;;7.05;3.88;;;19.60;83.50;;;;;;5074321;28;20033;-83
2022/08/22 02:19:15;;;;;;;12.63;4.40;;;19.50;83.60;;;;;;5075468;28;20024;-82
2022/08/22 02:21:45;;;;;;;8.18;3.97;;;19.60;83.40;;;;;;5075957;28;20488;-82
2022/08/22 02:24:43;;;;;;;8.40;3.85;;;19.60;83.50;;;;;;5066903;28;20028;-82
2022/08/22 02:27:38;;;;;;;7.75;4.05;;;19.60;83.30;;;;;;5031367;28;20045;-82
2022/08/22 02:30:09;;;;;;;6.78;4.07;;;19.70;83.30;;;;;;5055861;28;20025;-82
2022/08/22 02:32:41;;;;;;;7.10;4.03;;;19.60;83.40;;;;;;5037531;28;20040;-82
2022/08/22 02:35:31;;;;;;;6.05;3.30;;;19.60;83.30;;;;;;5055551;28;20032;-83
2022/08/22 02:38:09;;;;;;;;;;;19.70;83.20;;;;;;5037887;28;20036;-82
2022/08/22 02:40:52;;;;;;;4.97;3.28;;;19.70;83.20;;;;;;5055464;28;19909;-82
2022/08/22 02:43:25;;;;;;;8.10;4.45;;;19.60;83.40;;;;;;5055276;28;20158;-82
2022/08/22 02:45:54;;;;;;;9.35;4.38;;;19.70;83.20;;;;;;5069993;28;20035;-82
2022/08/22 02:49:07;;;;;;;7.70;4.20;;;19.70;83.10;;;;;;5056482;28;20558;-82
2022/08/22 02:51:48;;;;;;;7.30;3.67;;;19.70;83.40;;;;;;4974204;28;20086;-82
2022/08/22 02:54:37;;;;;;;6.65;3.75;;;19.70;83.30;;;;;;4958079;28;20027;-82
2022/08/22 02:57:21;;;;;;;8.15;4.25;;;19.70;83.20;;;;;;5037741;28;20041;-82
2022/08/22 02:59:58;;;;;;;8.52;4.70;;;19.60;83.20;;;;;;5055257;28;20060;-82
2022/08/22 03:02:52;;;;;;;7.22;4.10;;;19.70;83.20;;;;;;5073041;28;20035;-82
2022/08/22 03:05:37;;;;;;;6.60;3.95;;;19.60;83.60;;;;;;5079199;28;20024;-82
2022/08/22 03:08:25;;;;;;;7.95;4.65;;;19.60;83.40;;;;;;5095303;28;20031;-82
2022/08/22 03:11:14;;;;;;;7.20;4.25;;;19.60;83.30;;;;;;5075182;28;20079;-82
2022/08/22 03:13:52;;;;;;;9.65;4.70;;;19.60;83.60;;;;;;5055278;28;20053;-82
2022/08/22 03:16:23;;;;;;;8.75;4.53;;;19.50;83.60;;;;;;5036346;28;20024;-82
2022/08/22 03:19:23;;;;;;;8.05;4.47;;;19.60;83.60;;;;;;5055054;28;20036;-82
2022/08/22 03:22:09;;;;;;;7.38;4.18;;;19.60;83.60;;;;;;5055545;28;20104;-82
2022/08/22 03:25:14;;;;;;;9.55;4.13;;;19.60;83.50;;;;;;5058450;28;20032;-82
2022/08/22 03:27:55;;;;;;;7.95;4.05;;;19.50;83.90;;;;;;4957785;28;20471;-82
2022/08/22 03:30:29;;;;;;;8.02;4.35;;;19.60;83.80;;;;;;4973961;28;20486;-82
2022/08/22 03:32:58;;;;;;;9.15;4.75;;;19.60;83.70;;;;;;5019820;28;20063;-82
2022/08/22 03:35:38;;;;;;;9.40;5.05;;;19.60;84.00;;;;;;5056590;28;20047;-82
2022/08/22 03:38:25;;;;;;;8.63;4.22;;;19.50;83.70;;;;;;5054964;28;20051;-82
2022/08/22 03:41:09;;;;;;;7.10;4.28;;;19.60;83.90;;;;;;5054828;28;20035;-83
2022/08/22 03:43:55;;;;;;;9.85;4.63;;;19.60;83.70;;;;;;5063006;28;20036;-82
2022/08/22 03:46:49;;;;;;;9.30;4.30;;;19.60;83.70;;;;;;5074593;28;20052;-82
2022/08/22 03:49:34;;;;;;;10.25;4.03;;;19.60;83.70;;;;;;5074938;28;20017;-83
2022/08/22 03:52:27;;;;;;;9.52;4.35;;;19.60;83.50;;;;;;5054640;28;20047;-82
2022/08/22 03:55:12;;;;;;;8.95;3.80;;;19.60;83.60;;;;;;5039145;28;20072;-82
2022/08/22 03:57:51;;;;;;;8.50;4.60;;;19.50;83.80;;;;;;5058502;28;20138;-82
2022/08/22 04:00:53;;;;;;;8.88;3.83;;;19.60;83.80;;;;;;5058552;28;20025;-83
2022/08/22 04:03:39;;;;;;;7.82;3.92;;;19.60;83.80;;;;;;5058298;28;20480;-83
2022/08/22 04:06:34;;;;;;;9.38;4.32;;;19.60;84.00;;;;;;5080430;28;20424;-83
2022/08/22 04:09:20;;;;;;;6.32;3.90;;;19.50;83.80;;;;;;5080149;28;20440;-82
2022/08/22 04:12:25;;;;;;;8.13;4.13;;;19.60;83.80;;;;;;5074529;28;20037;-82
2022/08/22 04:15:32;;;;;;;9.82;5.25;;;19.60;83.90;;;;;;5058193;28;20037;-82
2022/08/22 04:18:20;;;;;;;10.20;4.57;;;19.60;83.90;;;;;;5040285;28;20041;-82
2022/08/22 04:21:19;;;;;;;10.27;4.97;;;19.60;84.00;;;;;;5058063;28;20032;-82
2022/08/22 04:24:30;;;;;;;9.60;5.03;;;19.60;83.90;;;;;;5057764;28;20032;-82
2022/08/22 04:26:58;;;;;;;9.07;3.67;;;19.50;84.00;;;;;;5042407;28;20049;-82
2022/08/22 04:29:27;;;;;;;11.15;4.95;;;19.60;83.90;;;;;;5057860;28;20530;-82
2022/08/22 04:32:10;;;;;;;11.90;4.97;;;19.60;84.10;;;;;;5057639;28;20911;-82
2022/08/22 04:34:49;;;;;;;9.70;4.82;;;19.50;84.20;;;;;;5057839;28;20021;-81
2022/08/22 04:37:29;;;;;;;9.93;4.65;;;19.50;84.40;;;;;;5057682;28;20028;-82
2022/08/22 04:40:06;;;;;;;10.68;4.78;;;19.50;84.30;;;;;;5057771;28;20056;-82
2022/08/22 04:42:46;;;;;;;9.93;5.03;;;19.50;84.30;;;;;;5057591;28;20029;-80
2022/08/22 04:45:51;;;;;;;8.13;4.88;;;19.50;84.50;;;;;;5039646;28;20021;-91
2022/08/22 04:48:27;;;;;;;9.90;4.57;;;19.50;84.50;;;;;;5039513;28;20036;-88
2022/08/22 04:51:27;;;;;;;9.15;4.38;;;19.50;84.30;;;;;;5056900;28;20021;-87
2022/08/22 05:01:17;;;;;;;11.10;5.10;;;19.60;83.90;;;;;;5052675;28;20468;-87
2022/08/22 05:04:07;;;;;;;11.63;4.78;;;19.60;83.90;;;;;;5060186;28;20025;-84
2022/08/22 05:06:39;;;;;;;14.18;5.05;;;19.60;84.10;;;;;;5082251;28;20024;-88
2022/08/22 05:09:14;;;;;;;8.75;5.18;;;19.70;83.80;;;;;;5076911;28;20039;-82
2022/08/22 05:11:41;;;;;;;11.77;5.50;;;19.70;83.90;;;;;;5065619;28;20025;-83
2022/08/22 05:14:26;;;;;;;11.70;5.53;;;19.70;83.70;;;;;;5038299;28;20056;-85
2022/08/22 05:16:55;;;;;;;9.82;5.07;;;19.70;84.00;;;;;;5038380;28;20029;-85
2022/08/22 05:19:38;;;;;;;13.18;5.05;;;19.60;84.10;;;;;;5060645;28;20053;-91
2022/08/22 05:22:10;;;;;;;13.27;5.72;;;19.70;84.00;;;;;;5039843;28;20037;-90
2022/08/22 05:24:41;;;;;;;11.65;5.10;;;19.70;84.00;;;;;;5039023;28;20746;-92
2022/08/22 05:27:34;;;;;;;10.40;5.18;;;19.70;84.30;;;;;;5043116;28;20431;-90
2022/08/22 05:30:08;;;;;;;12.13;5.47;;;19.60;84.20;;;;;;5039264;28;20093;-88
2022/08/22 05:32:55;;;;;;;10.15;5.57;;;19.70;84.20;;;;;;5049304;28;20044;-90
2022/08/22 05:35:35;;;;;;;12.07;5.88;;;19.70;84.20;;;;;;5047144;28;20024;-78
2022/08/22 05:38:03;;;;;;;12.00;5.37;;;19.60;84.30;;;;;;5066002;28;20028;-88
2022/08/22 05:40:32;;;;;;;11.10;5.32;;;19.70;84.20;;;;;;5055283;28;20033;-85
2022/08/22 05:42:57;;;;;;;13.05;6.68;;;19.70;84.40;;;;;;5038224;28;20041;-87
2022/08/22 05:45:25;;;;;;;13.05;6.15;;;19.70;84.30;;;;;;5043128;28;20709;-88
2022/08/22 05:48:17;;;;;;;10.25;5.95;;;19.60;84.60;;;;;;5053279;28;20032;-88
2022/08/22 05:50:57;;;;;;;12.23;6.00;;;19.70;84.60;;;;;;5064609;28;20132;-88
2022/08/22 05:53:33;;;;;;;11.93;5.82;;;19.70;84.70;;;;;;5066825;28;20020;-87
2022/08/22 05:56:15;;;;;;;11.05;5.80;;;19.80;84.50;;;;;;5064874;28;20029;-87
2022/08/22 05:58:50;;;;;;;14.75;5.53;;;19.80;84.30;;;;;;5040733;28;20035;-87
2022/08/22 06:01:16;;;;;;;11.77;5.30;;;19.80;84.70;;;;;;5045196;28;20112;-87
2022/08/22 06:04:03;;;;;;;15.18;6.05;;;19.80;84.50;;;;;;5053066;28;20093;-88
2022/08/22 06:06:36;;;;;;;15.02;5.75;;;19.80;84.40;;;;;;5052747;28;20021;-88
2022/08/22 06:09:16;;;;;;;12.68;5.47;;;19.90;84.30;;;;;;5050272;28;20040;-89
2022/08/22 06:11:47;;;;;;;11.32;5.78;;;19.90;84.00;;;;;;5047687;28;20009;-89
2022/08/22 06:14:29;;;;;;;15.75;6.10;;;19.90;84.00;;;;;;5066821;28;20083;-87
2022/08/22 06:17:06;;;;;;;12.00;5.53;;;19.90;84.10;;;;;;5063335;28;20044;-86
2022/08/22 06:19:39;;;;;;;13.38;5.78;;;19.90;84.20;;;;;;5062789;28;20486;-86
2022/08/22 06:22:05;;;;;;;14.55;6.13;;;19.90;84.30;;;;;;5047522;28;20024;-86
2022/08/22 06:24:35;;;;;;;15.00;6.22;;;19.90;84.20;;;;;;5063179;28;20028;-86
2022/08/22 06:27:07;;;;;;;13.35;6.25;;;20.00;84.00;;;;;;5069841;28;20051;-85
2022/08/22 06:29:41;;;;;;;14.95;6.13;;;20.00;84.00;;;;;;5045912;28;20473;-85
2022/08/22 06:32:24;;;;;;;10.70;5.55;;;20.00;84.10;;;;;;5063689;28;20128;-85
2022/08/22 06:34:52;;;;;;;14.18;6.15;;;20.00;84.30;;;;;;5042426;28;20028;-85
2022/08/22 06:37:31;;;;;;;11.63;6.03;;;20.00;84.10;;;;;;5063692;28;20040;-86
2022/08/22 06:39:59;;;;;;;14.57;6.43;;;20.00;84.10;;;;;;5047788;28;20020;-86
2022/08/22 06:42:29;;;;;;;15.27;6.07;;;20.10;83.90;;;;;;5049555;28;20033;-85
2022/08/22 06:45:03;;;;;;;;;;;20.20;84.10;;;;;;5046302;28;20040;-85
2022/08/22 06:47:43;;;;;;;10.43;4.57;;;20.20;84.10;;;;;;5047264;28;19908;-86
2022/08/22 06:50:13;;;;;;;12.07;5.20;;;20.30;84.00;;;;;;5045830;28;20039;-87
2022/08/22 06:53:23;;;;;;;14.50;5.47;;;20.30;83.90;;;;;;5045234;28;20028;-84
2022/08/22 06:55:56;;;;;;;9.55;4.88;;;20.30;84.10;;;;;;5062304;28;20060;-86
2022/08/22 06:58:42;;;;;;;11.57;5.10;;;20.30;84.50;;;;;;5045621;28;20105;-84
2022/08/22 07:01:13;;;;;;;12.60;6.05;;;20.20;84.70;;;;;;5063219;28;20037;-87
2022/08/22 07:03:44;;;;;;;9.57;5.00;;;20.30;84.60;;;;;;5045646;28;20036;-86
2022/08/22 07:06:34;;;;;;;10.30;4.88;;;20.30;84.40;;;;;;5067932;28;20159;-87
2022/08/22 07:09:00;;;;;;;17.65;5.55;;;20.30;84.60;;;;;;5044266;28;20056;-87
2022/08/22 07:11:36;;;;;;;10.23;5.10;;;20.30;84.60;;;;;;5064250;28;20082;-87
2022/08/22 07:14:11;;;;;;;11.20;4.80;;;20.30;84.80;;;;;;5066498;28;20077;-87
2022/08/22 07:16:52;;;;;;;10.63;4.72;;;20.30;84.80;;;;;;5047820;28;20085;-88
2022/08/22 07:19:31;;;;;;;9.50;4.30;;;20.50;84.60;;;;;;5065028;28;20075;-87
2022/08/22 07:22:00;;;;;;;9.00;4.07;;;20.50;84.10;;;;;;5048964;28;20055;-85
2022/08/22 07:24:30;;;;;;;9.88;4.13;;;20.40;84.40;;;;;;5054330;28;20448;-87
2022/08/22 07:27:08;;;;;;;;;;;20.40;84.50;;;;;;5045472;28;20029;-86
2022/08/22 07:30:08;;;;;;;13.18;4.25;;;20.50;84.40;;;;;;5076562;28;19908;-87
2022/08/22 07:32:44;;;;;;;8.30;4.13;;;20.60;84.40;;;;;;5059954;28;20024;-87
2022/08/22 07:35:23;;;;;;;9.40;4.40;;;20.70;84.60;;;;;;5058441;28;20025;-86
2022/08/22 07:38:03;;;;;;;10.13;4.30;;;20.80;84.40;;;;;;5059546;28;20147;-87
2022/08/22 07:41:04;;;;;;;10.65;4.57;;;20.80;84.10;;;;;;5053837;28;20037;-87
2022/08/22 07:43:39;;;;;;;14.50;4.82;;;20.90;84.10;;;;;;5058136;28;20033;-87
2022/08/22 07:46:17;;;;;;;12.55;5.18;;;20.90;84.00;;;;;;5056174;28;20120;-87
2022/08/22 07:49:20;;;;;;;11.05;5.28;;;20.80;83.90;;;;;;5058898;28;20033;-87
2022/08/22 07:51:54;;;;;;;13.23;5.40;;;20.80;84.30;;;;;;5027641;28;20082;-87
2022/08/22 07:54:43;;;;;;;14.00;6.25;;;20.90;84.00;;;;;;5040614;28;20036;-86
2022/08/22 07:57:23;;;;;;;14.95;4.65;;;21.00;84.20;;;;;;5063916;28;20047;-86
2022/08/22 07:59:52;;;;;;;15.07;5.20;;;21.00;83.90;;;;;;5074960;28;20549;-86
2022/08/22 08:02:19;;;;;;;13.27;5.57;;;21.00;83.90;;;;;;5085489;28;20616;-87
2022/08/22 08:04:48;;;;;;;11.32;5.50;;;21.10;83.70;;;;;;5074905;28;20130;-86
2022/08/22 08:07:16;;;;;;;14.67;5.50;;;21.00;83.80;;;;;;5098901;28;20024;-86
2022/08/22 08:09:48;;;;;;;11.45;4.85;;;21.00;84.00;;;;;;5049265;28;20056;-87
2022/08/22 08:12:17;;;;;;;10.15;4.75;;;21.10;84.30;;;;;;5084371;28;20534;-86
2022/08/22 08:14:44;;;;;;;9.82;4.68;;;21.00;84.30;;;;;;5058507;28;20115;-85
2022/08/22 08:17:25;;;;;;;11.07;4.20;;;21.10;84.20;;;;;;5058687;28;20033;-86
2022/08/22 08:19:51;;;;;;;;;;;21.10;84.30;;;;;;5058774;28;20035;-86
2022/08/22 08:22:23;;;;;;;10.30;3.13;;;21.20;84.20;;;;;;5060126;28;19908;-86
2022/08/22 08:24:51;;;;;;;8.77;3.50;;;21.20;84.40;;;;;;5058088;28;20037;-86
2022/08/22 08:30:15;;;;;;;5.70;3.17;;;21.30;84.50;;;;;;5062576;28;20039;-87
2022/08/22 08:32:44;;;;;;;7.68;3.20;;;21.20;84.00;;;;;;5059566;28;20024;-87
2022/08/22 08:35:27;;;;;;;7.25;3.00;;;21.30;84.50;;;;;;5055637;28;20040;-87
2022/08/22 08:38:00;;;;;;;8.43;3.00;;;21.30;84.50;;;;;;5061947;28;20020;-86
2022/08/22 08:40:32;;;;;;;5.85;2.47;;;21.40;84.50;;;;;;5058192;28;20043;-87
2022/08/22 08:43:33;;;;;;;7.57;2.70;;;21.40;84.10;;;;;;5077825;28;20043;-88
2022/08/22 08:46:29;;;;;;;4.93;2.17;;;21.40;84.30;;;;;;5066881;28;20412;-87
2022/08/22 08:49:23;;;;;;;5.22;1.58;;;21.80;83.60;;;;;;5058205;28;20032;-88
2022/08/22 08:52:09;;;;;;;3.15;1.58;;;21.90;83.20;;;;;;5058080;28;20060;-88
2022/08/22 08:55:01;;;;;;;5.15;1.80;;;21.90;82.80;;;;;;5058062;28;20037;-86
2022/08/22 08:57:45;;;;;;;3.45;1.80;;;21.90;82.50;;;;;;5039935;28;20025;-86
2022/08/22 09:00:21;;;;;;;2.70;1.35;;;22.00;82.70;;;;;;5040964;28;20036;-87
2022/08/22 09:02:57;;;;;;;6.75;1.77;;;22.20;82.20;;;;;;5055063;28;20024;-86
2022/08/22 09:05:45;;;;;;;4.00;1.65;;;22.30;82.00;;;;;;5078558;28;20117;-86
2022/08/22 09:08:20;;;;;;;6.53;1.60;;;22.30;81.70;;;;;;5055707;28;20562;-86
2022/08/22 09:11:04;;;;;;;3.00;1.73;;;22.60;80.70;;;;;;5069537;28;20103;-87
2022/08/22 09:14:18;;;;;;;3.20;1.88;;;22.90;80.00;;;;;;5063247;28;21360;-88
2022/08/22 09:17:08;;;;;;;2.70;1.58;;;22.90;79.70;;;;;;5066541;28;20032;-88
2022/08/22 09:20:02;;;;;;;2.47;1.50;;;22.80;79.50;;;;;;5046144;28;20024;-88
2022/08/22 09:22:47;;;;;;;2.08;1.10;;;22.70;79.30;;;;;;5046021;28;20033;-87
2022/08/22 09:25:32;;;;;;;3.22;1.27;;;22.60;79.90;;;;;;5061471;28;20035;-86
2022/08/22 09:28:08;;;;;;;1.77;0.93;;;22.60;79.60;;;;;;5046230;28;20031;-89
2022/08/22 09:30:44;;;;;;;3.78;1.20;;;22.70;80.00;;;;;;5063583;28;20020;-87
2022/08/22 09:33:16;;;;;;;3.58;1.50;;;22.70;80.00;;;;;;5068087;28;20043;-89
2022/08/22 09:35:50;;;;;;;2.58;1.13;;;22.70;80.00;;;;;;5065744;28;20017;-87
2022/08/22 09:38:32;;;;;;;2.53;1.00;;;22.60;79.70;;;;;;5069066;28;20036;-91
2022/08/22 09:41:22;;;;;;;2.33;1.05;;;22.70;80.00;;;;;;5054354;28;20157;-89
2022/08/22 09:44:14;;;;;;;2.38;0.90;;;22.80;80.00;;;;;;5053882;28;20033;-90
2022/08/22 09:46:53;;;;;;;2.58;1.17;;;22.80;79.30;;;;;;5052831;28;20017;-89
2022/08/22 09:49:40;;;;;;;3.35;1.05;;;22.80;79.50;;;;;;5043848;28;20092;-89
2022/08/22 09:52:41;;;;;;;1.60;1.05;;;22.80;79.30;;;;;;5078080;28;20020;-89
2022/08/22 09:55:26;;;;;;;1.80;0.90;;;22.90;79.50;;;;;;5060640;28;20024;-89
2022/08/22 09:58:10;;;;;;;1.73;1.10;;;23.10;79.20;;;;;;5067920;28;20082;-87
2022/08/22 10:01:08;;;;;;;1.90;0.90;;;23.30;78.70;;;;;;5047581;28;20032;-88
2022/08/22 10:04:11;;;;;;;2.28;1.10;;;23.50;77.30;;;;;;5011297;28;20100;-87
2022/08/22 10:07:27;;;;;;;1.23;0.63;;;23.50;77.00;;;;;;5064463;28;20033;-87
2022/08/22 10:10:06;;;;;;;1.65;0.93;;;23.40;77.30;;;;;;4999737;28;20042;-88
2022/08/22 10:13:02;;;;;;;1.38;0.80;;;23.30;77.50;;;;;;5062278;28;20036;-89
2022/08/22 10:15:40;;;;;;;1.48;0.77;;;23.40;77.60;;;;;;5033462;28;20520;-91
2022/08/22 10:18:12;;;;;;;1.40;0.73;;;23.30;77.60;;;;;;5052454;28;20388;-91
2022/08/22 10:21:10;;;;;;;1.65;1.00;;;23.30;77.10;;;;;;5067268;28;20109;-81
2022/08/22 10:23:39;;;;;;;1.48;0.88;;;23.30;77.40;;;;;;5067339;28;20502;-90
2022/08/22 10:26:43;;;;;;;1.65;0.90;;;23.30;77.20;;;;;;5079545;28;20035;-89
2022/08/22 10:29:36;;;;;;;1.58;0.88;;;23.40;76.50;;;;;;5074302;28;20103;-90
2022/08/22 10:32:41;;;;;;;1.42;0.80;;;23.70;76.40;;;;;;5075312;28;20637;-90
2022/08/22 10:35:17;;;;;;;1.52;0.80;;;24.00;75.40;;;;;;5059601;28;20071;-90
2022/08/22 10:37:59;;;;;;;1.38;0.63;;;24.00;74.60;;;;;;5062690;28;20111;-91
2022/08/22 10:40:52;;;;;;;1.33;0.80;;;24.10;73.90;;;;;;5061754;28;20024;-90
2022/08/22 10:43:28;;;;;;;1.83;0.80;;;24.20;73.90;;;;;;5046673;28;20036;-91
2022/08/22 10:46:05;;;;;;;2.08;0.63;;;24.20;73.50;;;;;;5058521;28;20115;-91
2022/08/22 10:48:59;;;;;;;1.95;0.60;;;24.30;73.50;;;;;;5049976;28;20044;-89
2022/08/22 10:51:43;;;;;;;1.52;0.70;;;24.60;73.70;;;;;;5068995;28;20039;-91
2022/08/22 10:54:41;;;;;;;1.25;0.60;;;24.60;73.30;;;;;;5065597;28;20031;-90
2022/08/22 10:57:18;;;;;;;1.10;0.60;;;24.60;72.90;;;;;;5004027;28;20542;-91
2022/08/22 11:00:10;;;;;;;1.30;0.65;;;24.70;72.40;;;;;;5090335;28;20107;-88
2022/08/22 11:02:48;;;;;;;1.02;0.40;;;24.70;71.50;;;;;;5040187;28;20032;-89
2022/08/22 11:05:30;;;;;;;1.17;0.68;;;24.50;71.10;;;;;;5079002;28;20043;-86
2022/08/22 11:07:58;;;;;;;1.30;0.45;;;24.70;71.10;;;;;;5055882;28;20390;-86
2022/08/22 11:10:41;;;;;;;1.17;0.68;;;24.90;71.10;;;;;;5064935;28;20028;-85
2022/08/22 11:13:12;;;;;;;2.20;0.70;;;25.20;70.80;;;;;;5064803;28;20055;-85
2022/08/22 11:15:59;;;;;;;1.48;0.73;;;25.30;70.60;;;;;;5060503;28;20029;-86
2022/08/22 11:18:36;;;;;;;1.55;0.70;;;25.60;70.60;;;;;;5063463;28;20025;-87
2022/08/22 11:21:09;;;;;;;1.00;0.50;;;25.40;69.70;;;;;;5074905;28;20037;-91
2022/08/22 11:23:44;;;;;;;1.48;0.70;;;25.30;69.00;;;;;;5075049;28;20434;-85
2022/08/22 11:26:24;;;;;;;1.67;0.70;;;25.00;68.90;;;;;;5045870;28;20033;-85
2022/08/22 11:29:01;;;;;;;1.73;0.70;;;25.20;68.80;;;;;;5064696;28;20037;-89
2022/08/22 11:31:28;;;;;;;2.22;0.80;;;25.50;68.70;;;;;;5061026;28;20442;-90
2022/08/22 11:34:27;;;;;;;2.20;0.60;;;25.80;68.90;;;;;;5057711;28;20455;-85
2022/08/22 11:36:59;;;;;;;1.60;0.70;;;25.80;68.20;;;;;;5052601;28;20040;-86
2022/08/22 11:39:38;;;;;;;0.98;0.50;;;25.70;67.50;;;;;;5075217;28;20717;-86
2022/08/22 11:42:30;;;;;;;1.90;0.70;;;25.80;67.70;;;;;;5055504;28;20458;-87
2022/08/22 11:45:00;;;;;;;2.05;0.90;;;25.70;66.90;;;;;;5037427;28;20043;-87
2022/08/22 11:47:39;;;;;;;5.35;1.00;;;25.70;66.40;;;;;;5056079;28;20040;-88
2022/08/22 11:50:29;;;;;;;2.10;0.68;;;25.70;65.50;;;;;;5046276;28;20044;-87
2022/08/22 11:53:12;;;;;;;1.17;0.55;;;25.60;64.80;;;;;;5055036;28;20511;-87
2022/08/22 11:55:49;;;;;;;1.15;0.55;;;25.50;64.50;;;;;;5037436;28;20021;-90
2022/08/22 11:58:26;;;;;;;1.10;0.65;;;25.30;64.90;;;;;;5055488;28;20091;-88
2022/08/22 12:01:09;;;;;;;2.72;0.82;;;24.90;65.60;;;;;;5054823;28;20033;-85
2022/08/22 12:03:53;;;;;;;2.30;0.60;;;24.80;66.40;;;;;;5059806;28;20032;-86
2022/08/22 12:06:47;;;;;;;0.85;0.40;;;24.80;67.00;;;;;;5066144;28;20487;-87
2022/08/22 12:09:40;;;;;;;1.00;0.50;;;24.90;66.80;;;;;;5071162;28;20043;-86
2022/08/22 12:12:44;;;;;;;0.90;0.50;;;25.00;66.70;;;;;;5070849;28;20050;-86
2022/08/22 12:15:34;;;;;;;2.30;0.82;;;24.80;65.90;;;;;;5057875;28;20055;-86
2022/08/22 12:18:16;;;;;;;2.10;0.95;;;24.70;66.80;;;;;;5078455;28;20020;-87
2022/08/22 12:21:04;;;;;;;1.17;0.88;;;24.70;67.20;;;;;;5056773;28;20047;-87
2022/08/22 12:23:41;;;;;;;1.30;0.80;;;24.80;67.10;;;;;;5078638;28;20028;-87
2022/08/22 12:26:15;;;;;;;1.27;0.80;;;25.10;66.80;;;;;;5059725;28;20031;-87
2022/08/22 12:28:58;;;;;;;12.30;1.23;;;25.30;66.30;;;;;;5047024;28;20554;-88
2022/08/22 12:31:43;;;;;;;1.30;0.70;;;25.40;65.90;;;;;;5072167;28;20543;-87
2022/08/22 12:34:27;;;;;;;1.40;0.70;;;25.60;66.00;;;;;;5059900;28;20537;-89
2022/08/22 12:37:17;;;;;;;1.60;0.70;;;25.70;63.50;;;;;;5075936;28;20064;-86
2022/08/22 12:40:10;;;;;;;1.27;0.77;;;25.80;64.60;;;;;;5073152;28;20032;-88
2022/08/22 12:42:39;;;;;;;1.35;0.90;;;25.80;63.50;;;;;;5062755;28;20033;-85
2022/08/22 12:45:15;;;;;;;1.20;0.70;;;26.00;63.80;;;;;;5069796;28;20031;-86
2022/08/22 12:47:58;;;;;;;1.63;0.88;;;25.90;62.10;;;;;;5068439;28;20032;-87
2022/08/22 12:50:27;;;;;;;1.10;0.60;;;25.80;62.60;;;;;;5044953;28;20052;-87
2022/08/22 12:53:17;;;;;;;1.15;0.60;;;25.90;62.20;;;;;;5040464;28;20502;-86
2022/08/22 12:55:42;;;;;;;;;;;25.80;62.10;;;;;;5058257;28;20025;-86
2022/08/22 12:58:14;;;;;;;3.25;0.75;;;25.90;62.90;;;;;;5057971;28;19953;-86
2022/08/22 13:00:46;;;;;;;1.20;0.77;;;25.70;62.00;;;;;;5040218;28;20663;-86
2022/08/22 13:03:27;;;;;;;1.58;0.73;;;25.60;61.90;;;;;;5057832;28;20025;-88
2022/08/22 13:05:54;;;;;;;1.70;0.60;;;25.60;61.00;;;;;;5066652;28;20412;-87
2022/08/22 13:08:43;;;;;;;0.80;0.50;;;25.80;61.30;;;;;;5059568;28;20123;-87
2022/08/22 13:11:14;;;;;;;1.67;0.70;;;26.10;60.70;;;;;;5042238;28;20044;-86
2022/08/22 13:13:48;;;;;;;1.75;0.60;;;26.40;61.10;;;;;;5056306;28;20451;-87
2022/08/22 13:16:17;;;;;;;1.20;0.65;;;26.50;59.40;;;;;;5057300;28;20025;-88
2022/08/22 13:18:51;;;;;;;0.95;0.60;;;26.30;59.80;;;;;;5039077;28;20036;-86
2022/08/22 13:21:24;;;;;;;1.00;0.50;;;26.20;60.20;;;;;;5043099;28;20032;-87
2022/08/22 13:23:52;;;;;;;1.13;0.60;;;26.00;59.80;;;;;;5074706;28;20020;-88
2022/08/22 13:26:21;;;;;;;0.95;0.40;;;26.20;61.00;;;;;;5071577;28;20052;-87
2022/08/22 13:29:01;;;;;;;0.60;0.40;;;26.30;59.40;;;;;;5076730;28;20032;-88
2022/08/22 13:31:29;;;;;;;;;;;26.50;59.10;;;;;;5055314;28;20029;-87
2022/08/22 13:34:05;;;;;;;0.95;0.47;;;26.80;58.10;;;;;;5064544;28;19918;-86
2022/08/22 13:36:42;;;;;;;1.48;0.57;;;27.00;57.50;;;;;;5045349;28;20107;-86
2022/08/22 13:39:07;;;;;;;0.77;0.32;;;27.30;57.50;;;;;;5065750;28;20032;-87
2022/08/22 13:41:44;;;;;;;0.90;0.50;;;27.50;56.80;;;;;;5063449;28;20656;-86
2022/08/22 13:44:18;;;;;;;1.23;0.38;;;27.80;56.30;;;;;;5064161;28;20408;-85
2022/08/22 13:46:46;;;;;;;0.73;0.38;;;27.60;55.60;;;;;;5045828;28;20024;-86
2022/08/22 13:49:17;;;;;;;1.95;0.70;;;27.40;55.50;;;;;;5062544;28;20480;-86
2022/08/22 13:52:02;;;;;;;0.98;0.47;;;27.40;56.80;;;;;;5064411;28;20055;-88
2022/08/22 13:54:54;;;;;;;0.55;0.28;;;27.30;56.30;;;;;;5062420;28;20040;-85
2022/08/22 13:57:27;;;;;;;0.70;0.30;;;27.30;56.30;;;;;;5045429;28;20512;-87
2022/08/22 14:00:00;;;;;;;0.50;0.25;;;27.40;55.80;;;;;;5045606;28;20100;-86
2022/08/22 14:02:58;;;;;;;0.65;0.30;;;27.30;55.30;;;;;;5061300;28;20025;-85
2022/08/22 14:05:31;;;;;;;3.40;0.38;;;27.40;56.20;;;;;;5063624;28;20041;-86
2022/08/22 14:08:20;;;;;;;0.60;0.40;;;27.30;55.50;;;;;;5061334;28;20021;-87
2022/08/22 14:11:10;;;;;;;0.93;0.47;;;27.20;55.80;;;;;;5046501;28;20044;-87